sensor_id;sensor_type;location;lat;lon;timestamp;temperature;humidity
39925;DHT22;25592;49.986;11.618;2023-08-06T00:01:53;19.30;99.90
39925;DHT22;25592;49.986;11.618;2023-08-06T00:04:39;19.20;99.90
39925;DHT22;25592;49.986;11.618;2023-08-06T00:07:25;19.20;99.90
39925;DHT22;25592;49.986;11.618;2023-08-06T00:10:10;19.00;99.90
39925;DHT22;25592;49.986;11.618;2023-08-06T00:12:56;18.90;99.90
39925;DHT22;25592;49.986;11.618;2023-08-06T00:15:41;18.60;99.90
39925;DHT22;25592;49.986;11.618;2023-08-06T00:18:27;18.70;99.90
39925;DHT22;25592;49.986;11.618;2023-08-06T00:21:12;18.80;99.90
39925;DHT22;25592;49.986;11.618;2023-08-06T00:23:58;18.80;99.90
39925;DHT22;25592;49.986;11.618;2023-08-06T00:26:43;18.80;99.90
39925;DHT22;25592;49.986;11.618;2023-08-06T00:29:28;18.80;99.90
39925;DHT22;25592;49.986;11.618;2023-08-06T00:32:14;18.80;99.90
39925;DHT22;25592;49.986;11.618;2023-08-06T00:34:59;18.80;99.90
39925;DHT22;25592;49.986;11.618;2023-08-06T00:37:45;18.80;99.90
39925;DHT22;25592;49.986;11.618;2023-08-06T00:40:30;18.40;99.90
39925;DHT22;25592;49.986;11.618;2023-08-06T00:43:15;18.30;99.90
39925;DHT22;25592;49.986;11.618;2023-08-06T00:46:01;18.30;99.90
39925;DHT22;25592;49.986;11.618;2023-08-06T00:48:47;18.40;99.90
39925;DHT22;25592;49.986;11.618;2023-08-06T00:51:32;18.50;99.90
39925;DHT22;25592;49.986;11.618;2023-08-06T00:54:19;18.40;99.90
39925;DHT22;25592;49.986;11.618;2023-08-06T00:57:04;18.20;99.90
39925;DHT22;25592;49.986;11.618;2023-08-06T00:59:51;17.90;99.90
39925;DHT22;25592;49.986;11.618;2023-08-06T01:02:37;17.70;99.90
39925;DHT22;25592;49.986;11.618;2023-08-06T01:05:23;17.70;99.90
39925;DHT22;25592;49.986;11.618;2023-08-06T01:08:19;17.70;99.90
39925;DHT22;25592;49.986;11.618;2023-08-06T01:11:14;17.80;99.90
39925;DHT22;25592;49.986;11.618;2023-08-06T01:14:20;18.00;99.90
39925;DHT22;25592;49.986;11.618;2023-08-06T01:17:09;18.10;99.90
39925;DHT22;25592;49.986;11.618;2023-08-06T01:19:55;18.20;99.90
39925;DHT22;25592;49.986;11.618;2023-08-06T01:22:40;18.30;99.90
39925;DHT22;25592;49.986;11.618;2023-08-06T01:25:31;18.30;99.90
39925;DHT22;25592;49.986;11.618;2023-08-06T01:28:44;18.40;99.90
39925;DHT22;25592;49.986;11.618;2023-08-06T01:31:33;18.50;99.90
39925;DHT22;25592;49.986;11.618;2023-08-06T01:34:30;18.50;99.90
39925;DHT22;25592;49.986;11.618;2023-08-06T01:37:16;18.50;99.90
39925;DHT22;25592;49.986;11.618;2023-08-06T01:40:05;18.60;99.90
39925;DHT22;25592;49.986;11.618;2023-08-06T01:42:50;18.60;99.90
39925;DHT22;25592;49.986;11.618;2023-08-06T01:45:36;18.50;99.90
39925;DHT22;25592;49.986;11.618;2023-08-06T01:48:21;18.30;99.90
39925;DHT22;25592;49.986;11.618;2023-08-06T01:51:07;18.40;99.90
39925;DHT22;25592;49.986;11.618;2023-08-06T01:53:52;18.40;99.90
39925;DHT22;25592;49.986;11.618;2023-08-06T01:56:38;18.30;99.90
39925;DHT22;25592;49.986;11.618;2023-08-06T01:59:24;18.30;99.90
39925;DHT22;25592;49.986;11.618;2023-08-06T02:02:09;18.40;99.90
39925;DHT22;25592;49.986;11.618;2023-08-06T02:04:55;18.40;99.90
39925;DHT22;25592;49.986;11.618;2023-08-06T02:07:40;18.30;99.90
39925;DHT22;25592;49.986;11.618;2023-08-06T02:10:26;18.40;99.90
39925;DHT22;25592;49.986;11.618;2023-08-06T02:13:11;18.30;99.90
39925;DHT22;25592;49.986;11.618;2023-08-06T02:15:57;18.20;99.90
39925;DHT22;25592;49.986;11.618;2023-08-06T02:18:42;18.20;99.90
39925;DHT22;25592;49.986;11.618;2023-08-06T02:21:28;18.20;99.90
39925;DHT22;25592;49.986;11.618;2023-08-06T02:24:13;18.20;99.90
39925;DHT22;25592;49.986;11.618;2023-08-06T02:26:59;18.40;99.90
39925;DHT22;25592;49.986;11.618;2023-08-06T02:29:44;18.40;99.90
39925;DHT22;25592;49.986;11.618;2023-08-06T02:32:30;18.40;99.90
39925;DHT22;25592;49.986;11.618;2023-08-06T02:35:17;18.40;99.90
39925;DHT22;25592;49.986;11.618;2023-08-06T02:38:02;18.40;99.90
39925;DHT22;25592;49.986;11.618;2023-08-06T02:40:48;18.50;99.90
39925;DHT22;25592;49.986;11.618;2023-08-06T02:43:33;18.40;99.90
39925;DHT22;25592;49.986;11.618;2023-08-06T02:46:19;18.30;99.90
39925;DHT22;25592;49.986;11.618;2023-08-06T02:49:04;18.30;99.90
39925;DHT22;25592;49.986;11.618;2023-08-06T02:51:49;18.30;99.90
39925;DHT22;25592;49.986;11.618;2023-08-06T02:54:35;18.20;99.90
39925;DHT22;25592;49.986;11.618;2023-08-06T02:57:21;18.00;99.90
39925;DHT22;25592;49.986;11.618;2023-08-06T03:00:07;18.00;99.90
39925;DHT22;25592;49.986;11.618;2023-08-06T03:02:53;17.90;99.90
39925;DHT22;25592;49.986;11.618;2023-08-06T03:05:38;17.90;99.90
39925;DHT22;25592;49.986;11.618;2023-08-06T03:08:24;18.00;99.90
39925;DHT22;25592;49.986;11.618;2023-08-06T03:11:10;18.00;99.90
39925;DHT22;25592;49.986;11.618;2023-08-06T03:13:55;18.00;99.90
39925;DHT22;25592;49.986;11.618;2023-08-06T03:16:41;18.10;99.90
39925;DHT22;25592;49.986;11.618;2023-08-06T03:19:26;18.10;99.90
39925;DHT22;25592;49.986;11.618;2023-08-06T03:22:12;18.10;99.90
39925;DHT22;25592;49.986;11.618;2023-08-06T03:24:57;18.20;99.90
39925;DHT22;25592;49.986;11.618;2023-08-06T03:27:43;18.20;99.90
39925;DHT22;25592;49.986;11.618;2023-08-06T03:30:29;18.20;99.90
39925;DHT22;25592;49.986;11.618;2023-08-06T03:33:14;18.20;99.90
39925;DHT22;25592;49.986;11.618;2023-08-06T03:36:00;18.20;99.90
39925;DHT22;25592;49.986;11.618;2023-08-06T03:38:46;18.10;99.90
39925;DHT22;25592;49.986;11.618;2023-08-06T03:41:31;18.10;99.90
39925;DHT22;25592;49.986;11.618;2023-08-06T03:44:16;18.10;99.90
39925;DHT22;25592;49.986;11.618;2023-08-06T03:47:02;18.10;99.90
39925;DHT22;25592;49.986;11.618;2023-08-06T03:49:47;18.10;99.90
39925;DHT22;25592;49.986;11.618;2023-08-06T03:52:34;18.00;99.90
39925;DHT22;25592;49.986;11.618;2023-08-06T03:55:20;18.00;99.90
39925;DHT22;25592;49.986;11.618;2023-08-06T03:58:06;18.10;99.90
39925;DHT22;25592;49.986;11.618;2023-08-06T04:01:02;18.10;99.90
39925;DHT22;25592;49.986;11.618;2023-08-06T04:03:48;18.10;99.90
39925;DHT22;25592;49.986;11.618;2023-08-06T04:06:33;18.10;99.90
39925;DHT22;25592;49.986;11.618;2023-08-06T04:09:19;18.20;99.90
39925;DHT22;25592;49.986;11.618;2023-08-06T04:12:05;18.20;99.90
39925;DHT22;25592;49.986;11.618;2023-08-06T04:14:51;18.10;99.90
39925;DHT22;25592;49.986;11.618;2023-08-06T04:17:37;18.10;99.90
39925;DHT22;25592;49.986;11.618;2023-08-06T04:20:22;18.20;99.90
39925;DHT22;25592;49.986;11.618;2023-08-06T04:23:08;18.10;99.90
39925;DHT22;25592;49.986;11.618;2023-08-06T04:25:57;18.10;99.90
39925;DHT22;25592;49.986;11.618;2023-08-06T04:28:42;18.10;99.90
39925;DHT22;25592;49.986;11.618;2023-08-06T04:31:29;18.10;99.90
39925;DHT22;25592;49.986;11.618;2023-08-06T04:34:14;18.20;99.90
39925;DHT22;25592;49.986;11.618;2023-08-06T04:37:00;18.10;99.90
39925;DHT22;25592;49.986;11.618;2023-08-06T04:39:45;18.20;99.90
39925;DHT22;25592;49.986;11.618;2023-08-06T04:42:31;18.10;99.90
39925;DHT22;25592;49.986;11.618;2023-08-06T04:45:16;18.10;99.90
39925;DHT22;25592;49.986;11.618;2023-08-06T04:48:02;18.10;99.90
39925;DHT22;25592;49.986;11.618;2023-08-06T04:50:49;18.10;99.90
39925;DHT22;25592;49.986;11.618;2023-08-06T04:53:35;18.10;99.90
39925;DHT22;25592;49.986;11.618;2023-08-06T04:56:20;18.10;99.90
39925;DHT22;25592;49.986;11.618;2023-08-06T04:59:06;18.00;99.90
39925;DHT22;25592;49.986;11.618;2023-08-06T05:01:51;18.00;99.90
39925;DHT22;25592;49.986;11.618;2023-08-06T05:04:37;18.10;99.90
39925;DHT22;25592;49.986;11.618;2023-08-06T05:07:23;18.10;99.90
39925;DHT22;25592;49.986;11.618;2023-08-06T05:10:09;18.00;99.90
39925;DHT22;25592;49.986;11.618;2023-08-06T05:12:54;18.00;99.90
39925;DHT22;25592;49.986;11.618;2023-08-06T05:15:39;18.00;99.90
39925;DHT22;25592;49.986;11.618;2023-08-06T05:18:27;18.00;99.90
39925;DHT22;25592;49.986;11.618;2023-08-06T05:21:12;18.00;99.90
39925;DHT22;25592;49.986;11.618;2023-08-06T05:23:58;17.90;99.90
39925;DHT22;25592;49.986;11.618;2023-08-06T05:26:43;18.00;99.90
39925;DHT22;25592;49.986;11.618;2023-08-06T05:29:31;18.00;99.90
39925;DHT22;25592;49.986;11.618;2023-08-06T05:32:17;18.00;99.90
39925;DHT22;25592;49.986;11.618;2023-08-06T05:35:02;17.90;99.90
39925;DHT22;25592;49.986;11.618;2023-08-06T05:37:49;18.00;99.90
39925;DHT22;25592;49.986;11.618;2023-08-06T05:40:35;18.00;99.90
39925;DHT22;25592;49.986;11.618;2023-08-06T05:43:20;18.00;99.90
39925;DHT22;25592;49.986;11.618;2023-08-06T05:46:06;18.00;99.90
39925;DHT22;25592;49.986;11.618;2023-08-06T05:48:51;18.00;99.90
39925;DHT22;25592;49.986;11.618;2023-08-06T05:51:37;18.00;99.90
39925;DHT22;25592;49.986;11.618;2023-08-06T05:54:23;18.00;99.90
39925;DHT22;25592;49.986;11.618;2023-08-06T05:57:08;18.00;99.90
39925;DHT22;25592;49.986;11.618;2023-08-06T05:59:54;18.00;99.90
39925;DHT22;25592;49.986;11.618;2023-08-06T06:02:39;17.90;99.90
39925;DHT22;25592;49.986;11.618;2023-08-06T06:05:25;17.80;99.90
39925;DHT22;25592;49.986;11.618;2023-08-06T06:08:10;17.80;99.90
39925;DHT22;25592;49.986;11.618;2023-08-06T06:10:56;17.80;99.90
39925;DHT22;25592;49.986;11.618;2023-08-06T06:13:41;17.90;99.90
39925;DHT22;25592;49.986;11.618;2023-08-06T06:16:27;17.90;99.90
39925;DHT22;25592;49.986;11.618;2023-08-06T06:19:12;17.90;99.90
39925;DHT22;25592;49.986;11.618;2023-08-06T06:21:58;18.00;99.90
39925;DHT22;25592;49.986;11.618;2023-08-06T06:24:43;18.00;99.90
39925;DHT22;25592;49.986;11.618;2023-08-06T06:27:29;18.00;99.90
39925;DHT22;25592;49.986;11.618;2023-08-06T06:30:15;18.00;99.90
39925;DHT22;25592;49.986;11.618;2023-08-06T06:33:00;18.00;99.90
39925;DHT22;25592;49.986;11.618;2023-08-06T06:35:46;18.00;99.90
39925;DHT22;25592;49.986;11.618;2023-08-06T06:38:31;18.00;99.90
39925;DHT22;25592;49.986;11.618;2023-08-06T06:41:16;18.00;99.90
39925;DHT22;25592;49.986;11.618;2023-08-06T06:44:02;18.00;99.90
39925;DHT22;25592;49.986;11.618;2023-08-06T06:46:48;18.10;99.90
39925;DHT22;25592;49.986;11.618;2023-08-06T06:49:34;18.10;99.90
39925;DHT22;25592;49.986;11.618;2023-08-06T06:52:20;18.20;99.90
39925;DHT22;25592;49.986;11.618;2023-08-06T06:55:05;18.20;99.90
39925;DHT22;25592;49.986;11.618;2023-08-06T06:57:51;18.20;99.90
39925;DHT22;25592;49.986;11.618;2023-08-06T07:00:36;18.20;99.90
39925;DHT22;25592;49.986;11.618;2023-08-06T07:03:22;18.10;99.90
39925;DHT22;25592;49.986;11.618;2023-08-06T07:06:08;18.10;99.90
39925;DHT22;25592;49.986;11.618;2023-08-06T07:08:53;18.10;99.90
39925;DHT22;25592;49.986;11.618;2023-08-06T07:11:40;18.20;99.90
39925;DHT22;25592;49.986;11.618;2023-08-06T07:14:28;18.20;99.90
39925;DHT22;25592;49.986;11.618;2023-08-06T07:17:14;18.30;99.90
39925;DHT22;25592;49.986;11.618;2023-08-06T07:19:59;18.20;99.90
39925;DHT22;25592;49.986;11.618;2023-08-06T07:22:45;18.20;99.90
39925;DHT22;25592;49.986;11.618;2023-08-06T07:25:30;18.10;99.90
39925;DHT22;25592;49.986;11.618;2023-08-06T07:28:16;18.20;99.90
39925;DHT22;25592;49.986;11.618;2023-08-06T07:31:02;18.20;99.90
39925;DHT22;25592;49.986;11.618;2023-08-06T07:33:51;18.10;99.90
39925;DHT22;25592;49.986;11.618;2023-08-06T07:36:37;18.20;99.90
39925;DHT22;25592;49.986;11.618;2023-08-06T07:39:23;18.20;99.90
39925;DHT22;25592;49.986;11.618;2023-08-06T07:42:10;18.30;99.90
39925;DHT22;25592;49.986;11.618;2023-08-06T07:44:58;18.40;99.90
39925;DHT22;25592;49.986;11.618;2023-08-06T07:47:43;18.50;99.90
39925;DHT22;25592;49.986;11.618;2023-08-06T07:50:29;18.60;99.90
39925;DHT22;25592;49.986;11.618;2023-08-06T07:53:15;18.60;99.90
39925;DHT22;25592;49.986;11.618;2023-08-06T07:56:00;18.70;99.90
39925;DHT22;25592;49.986;11.618;2023-08-06T07:58:47;18.80;99.90
39925;DHT22;25592;49.986;11.618;2023-08-06T08:01:33;18.70;99.90
39925;DHT22;25592;49.986;11.618;2023-08-06T08:04:18;18.80;99.90
39925;DHT22;25592;49.986;11.618;2023-08-06T08:07:09;18.80;99.90
39925;DHT22;25592;49.986;11.618;2023-08-06T08:09:54;18.70;99.90
39925;DHT22;25592;49.986;11.618;2023-08-06T08:12:40;18.80;99.90
39925;DHT22;25592;49.986;11.618;2023-08-06T08:15:25;18.70;99.90
39925;DHT22;25592;49.986;11.618;2023-08-06T08:18:13;18.70;99.90
39925;DHT22;25592;49.986;11.618;2023-08-06T08:20:58;18.60;99.90
39925;DHT22;25592;49.986;11.618;2023-08-06T08:23:44;18.60;99.90
39925;DHT22;25592;49.986;11.618;2023-08-06T08:26:30;18.70;99.90
39925;DHT22;25592;49.986;11.618;2023-08-06T08:29:15;18.60;99.90
39925;DHT22;25592;49.986;11.618;2023-08-06T08:32:01;18.80;99.90
39925;DHT22;25592;49.986;11.618;2023-08-06T08:34:46;18.80;99.90
39925;DHT22;25592;49.986;11.618;2023-08-06T08:37:32;18.80;99.90
39925;DHT22;25592;49.986;11.618;2023-08-06T08:40:18;19.00;99.90
39925;DHT22;25592;49.986;11.618;2023-08-06T08:43:03;19.30;99.90
39925;DHT22;25592;49.986;11.618;2023-08-06T08:45:50;19.40;99.90
39925;DHT22;25592;49.986;11.618;2023-08-06T08:48:36;19.40;99.90
39925;DHT22;25592;49.986;11.618;2023-08-06T08:51:23;19.20;99.90
39925;DHT22;25592;49.986;11.618;2023-08-06T08:54:08;19.00;99.90
39925;DHT22;25592;49.986;11.618;2023-08-06T08:56:56;19.00;99.90
39925;DHT22;25592;49.986;11.618;2023-08-06T08:59:42;18.80;99.90
39925;DHT22;25592;49.986;11.618;2023-08-06T09:02:28;18.60;99.90
39925;DHT22;25592;49.986;11.618;2023-08-06T09:05:16;18.40;99.90
39925;DHT22;25592;49.986;11.618;2023-08-06T09:08:04;18.40;99.90
39925;DHT22;25592;49.986;11.618;2023-08-06T09:10:49;18.60;99.90
39925;DHT22;25592;49.986;11.618;2023-08-06T09:13:37;18.70;99.90
39925;DHT22;25592;49.986;11.618;2023-08-06T09:16:23;19.10;99.90
39925;DHT22;25592;49.986;11.618;2023-08-06T09:19:10;19.20;99.90
39925;DHT22;25592;49.986;11.618;2023-08-06T09:21:56;19.30;99.90
39925;DHT22;25592;49.986;11.618;2023-08-06T09:24:42;19.70;99.90
39925;DHT22;25592;49.986;11.618;2023-08-06T09:27:28;19.90;99.90
39925;DHT22;25592;49.986;11.618;2023-08-06T09:30:37;20.10;99.90
39925;DHT22;25592;49.986;11.618;2023-08-06T09:33:23;19.90;99.90
39925;DHT22;25592;49.986;11.618;2023-08-06T09:36:10;19.60;99.90
39925;DHT22;25592;49.986;11.618;2023-08-06T09:38:56;19.50;99.90
39925;DHT22;25592;49.986;11.618;2023-08-06T09:41:42;19.20;99.90
39925;DHT22;25592;49.986;11.618;2023-08-06T09:44:30;19.00;99.90
39925;DHT22;25592;49.986;11.618;2023-08-06T09:47:15;19.10;99.90
39925;DHT22;25592;49.986;11.618;2023-08-06T09:50:03;19.60;99.90
39925;DHT22;25592;49.986;11.618;2023-08-06T09:52:52;19.90;99.90
39925;DHT22;25592;49.986;11.618;2023-08-06T09:55:38;19.80;99.90
39925;DHT22;25592;49.986;11.618;2023-08-06T09:58:25;19.60;99.90
39925;DHT22;25592;49.986;11.618;2023-08-06T10:01:11;18.90;99.90
39925;DHT22;25592;49.986;11.618;2023-08-06T10:03:57;18.50;99.90
39925;DHT22;25592;49.986;11.618;2023-08-06T10:06:46;18.20;99.90
39925;DHT22;25592;49.986;11.618;2023-08-06T10:09:32;18.00;99.90
39925;DHT22;25592;49.986;11.618;2023-08-06T10:12:17;17.80;99.90
39925;DHT22;25592;49.986;11.618;2023-08-06T10:15:08;17.70;99.90
39925;DHT22;25592;49.986;11.618;2023-08-06T10:17:57;17.70;99.90
39925;DHT22;25592;49.986;11.618;2023-08-06T10:20:43;17.80;99.90
39925;DHT22;25592;49.986;11.618;2023-08-06T10:23:36;17.80;99.90
39925;DHT22;25592;49.986;11.618;2023-08-06T10:26:27;18.00;99.90
39925;DHT22;25592;49.986;11.618;2023-08-06T10:29:48;18.10;99.90
39925;DHT22;25592;49.986;11.618;2023-08-06T10:32:47;18.00;99.90
39925;DHT22;25592;49.986;11.618;2023-08-06T10:35:37;18.10;99.90
39925;DHT22;25592;49.986;11.618;2023-08-06T10:38:25;18.40;99.90
39925;DHT22;25592;49.986;11.618;2023-08-06T10:41:27;18.60;99.90
39925;DHT22;25592;49.986;11.618;2023-08-06T10:44:12;18.50;99.90
39925;DHT22;25592;49.986;11.618;2023-08-06T10:47:28;18.60;99.90
39925;DHT22;25592;49.986;11.618;2023-08-06T10:50:15;18.60;99.90
39925;DHT22;25592;49.986;11.618;2023-08-06T10:53:05;18.70;99.90
39925;DHT22;25592;49.986;11.618;2023-08-06T10:55:53;18.70;99.90
39925;DHT22;25592;49.986;11.618;2023-08-06T10:58:38;18.70;99.90
39925;DHT22;25592;49.986;11.618;2023-08-06T11:01:24;18.80;99.90
39925;DHT22;25592;49.986;11.618;2023-08-06T11:04:13;19.00;99.90
39925;DHT22;25592;49.986;11.618;2023-08-06T11:07:02;19.30;99.90
39925;DHT22;25592;49.986;11.618;2023-08-06T11:09:50;19.20;99.90
39925;DHT22;25592;49.986;11.618;2023-08-06T11:12:36;19.10;99.90
39925;DHT22;25592;49.986;11.618;2023-08-06T11:15:22;19.10;99.90
39925;DHT22;25592;49.986;11.618;2023-08-06T11:18:07;19.20;99.90
39925;DHT22;25592;49.986;11.618;2023-08-06T11:20:52;19.20;99.90
39925;DHT22;25592;49.986;11.618;2023-08-06T11:23:39;19.00;99.90
39925;DHT22;25592;49.986;11.618;2023-08-06T11:26:25;18.80;99.90
39925;DHT22;25592;49.986;11.618;2023-08-06T11:29:10;18.60;99.90
39925;DHT22;25592;49.986;11.618;2023-08-06T11:32:04;18.70;99.90
39925;DHT22;25592;49.986;11.618;2023-08-06T11:34:49;18.80;99.90
39925;DHT22;25592;49.986;11.618;2023-08-06T11:37:36;18.70;99.90
39925;DHT22;25592;49.986;11.618;2023-08-06T11:40:21;18.80;99.90
39925;DHT22;25592;49.986;11.618;2023-08-06T11:43:07;18.80;99.90
39925;DHT22;25592;49.986;11.618;2023-08-06T11:45:55;18.90;99.90
39925;DHT22;25592;49.986;11.618;2023-08-06T11:48:57;19.10;99.90
39925;DHT22;25592;49.986;11.618;2023-08-06T11:51:45;19.20;99.90
39925;DHT22;25592;49.986;11.618;2023-08-06T11:54:31;19.20;99.90
39925;DHT22;25592;49.986;11.618;2023-08-06T11:57:19;19.00;99.90
39925;DHT22;25592;49.986;11.618;2023-08-06T12:00:06;18.90;99.90
39925;DHT22;25592;49.986;11.618;2023-08-06T12:02:53;18.90;99.90
39925;DHT22;25592;49.986;11.618;2023-08-06T12:05:40;18.70;99.90
39925;DHT22;25592;49.986;11.618;2023-08-06T12:08:28;18.90;99.90
39925;DHT22;25592;49.986;11.618;2023-08-06T12:11:14;19.10;99.90
39925;DHT22;25592;49.986;11.618;2023-08-06T12:13:59;19.00;99.90
39925;DHT22;25592;49.986;11.618;2023-08-06T12:16:45;18.60;99.90
39925;DHT22;25592;49.986;11.618;2023-08-06T12:19:30;18.30;99.90
39925;DHT22;25592;49.986;11.618;2023-08-06T12:22:16;18.30;99.90
39925;DHT22;25592;49.986;11.618;2023-08-06T12:25:03;18.20;99.90
39925;DHT22;25592;49.986;11.618;2023-08-06T12:27:48;18.50;99.90
39925;DHT22;25592;49.986;11.618;2023-08-06T12:30:34;18.60;99.90
39925;DHT22;25592;49.986;11.618;2023-08-06T12:33:19;19.10;99.90
39925;DHT22;25592;49.986;11.618;2023-08-06T12:36:05;19.20;99.90
39925;DHT22;25592;49.986;11.618;2023-08-06T12:38:50;19.30;99.90
39925;DHT22;25592;49.986;11.618;2023-08-06T12:41:36;19.60;99.90
39925;DHT22;25592;49.986;11.618;2023-08-06T12:44:21;19.70;99.90
39925;DHT22;25592;49.986;11.618;2023-08-06T12:47:07;19.60;99.90
39925;DHT22;25592;49.986;11.618;2023-08-06T12:49:53;19.50;99.90
39925;DHT22;25592;49.986;11.618;2023-08-06T12:52:38;19.40;99.90
39925;DHT22;25592;49.986;11.618;2023-08-06T12:55:23;19.40;99.90
39925;DHT22;25592;49.986;11.618;2023-08-06T12:58:09;19.80;99.90
39925;DHT22;25592;49.986;11.618;2023-08-06T13:00:54;20.20;99.90
39925;DHT22;25592;49.986;11.618;2023-08-06T13:03:40;20.00;99.90
39925;DHT22;25592;49.986;11.618;2023-08-06T13:06:25;19.60;99.90
39925;DHT22;25592;49.986;11.618;2023-08-06T13:09:11;19.50;99.90
39925;DHT22;25592;49.986;11.618;2023-08-06T13:11:57;19.40;99.90
39925;DHT22;25592;49.986;11.618;2023-08-06T13:14:43;19.40;99.90
39925;DHT22;25592;49.986;11.618;2023-08-06T13:17:31;19.40;99.90
39925;DHT22;25592;49.986;11.618;2023-08-06T13:20:17;19.70;99.90
39925;DHT22;25592;49.986;11.618;2023-08-06T13:23:05;20.10;99.90
39925;DHT22;25592;49.986;11.618;2023-08-06T13:25:50;20.50;99.90
39925;DHT22;25592;49.986;11.618;2023-08-06T13:28:35;21.00;99.90
39925;DHT22;25592;49.986;11.618;2023-08-06T13:31:21;21.20;99.90
39925;DHT22;25592;49.986;11.618;2023-08-06T13:34:06;21.10;99.90
39925;DHT22;25592;49.986;11.618;2023-08-06T13:36:52;21.10;99.90
39925;DHT22;25592;49.986;11.618;2023-08-06T13:39:38;20.90;99.90
39925;DHT22;25592;49.986;11.618;2023-08-06T13:42:24;20.50;99.90
39925;DHT22;25592;49.986;11.618;2023-08-06T13:45:10;20.30;99.90
39925;DHT22;25592;49.986;11.618;2023-08-06T13:47:55;20.20;99.90
39925;DHT22;25592;49.986;11.618;2023-08-06T13:50:40;20.30;99.90
39925;DHT22;25592;49.986;11.618;2023-08-06T13:53:26;20.30;99.90
39925;DHT22;25592;49.986;11.618;2023-08-06T13:56:15;20.10;99.90
39925;DHT22;25592;49.986;11.618;2023-08-06T13:59:02;19.90;99.90
39925;DHT22;25592;49.986;11.618;2023-08-06T14:01:48;19.80;99.90
39925;DHT22;25592;49.986;11.618;2023-08-06T14:04:37;19.70;99.90
39925;DHT22;25592;49.986;11.618;2023-08-06T14:07:22;19.60;99.90
39925;DHT22;25592;49.986;11.618;2023-08-06T14:10:08;19.40;99.90
39925;DHT22;25592;49.986;11.618;2023-08-06T14:12:54;19.10;99.90
39925;DHT22;25592;49.986;11.618;2023-08-06T14:15:54;18.90;99.90
39925;DHT22;25592;49.986;11.618;2023-08-06T14:18:39;18.80;99.90
39925;DHT22;25592;49.986;11.618;2023-08-06T14:21:26;18.80;99.90
39925;DHT22;25592;49.986;11.618;2023-08-06T14:24:12;18.60;99.90
39925;DHT22;25592;49.986;11.618;2023-08-06T14:26:57;18.60;99.90
39925;DHT22;25592;49.986;11.618;2023-08-06T14:29:42;18.60;99.90
39925;DHT22;25592;49.986;11.618;2023-08-06T14:32:28;18.60;99.90
39925;DHT22;25592;49.986;11.618;2023-08-06T14:35:14;18.80;99.90
39925;DHT22;25592;49.986;11.618;2023-08-06T14:37:59;18.80;99.90
39925;DHT22;25592;49.986;11.618;2023-08-06T14:40:47;18.80;99.90
39925;DHT22;25592;49.986;11.618;2023-08-06T14:43:33;18.70;99.90
39925;DHT22;25592;49.986;11.618;2023-08-06T14:46:18;18.70;99.90
39925;DHT22;25592;49.986;11.618;2023-08-06T14:49:04;18.60;99.90
39925;DHT22;25592;49.986;11.618;2023-08-06T14:51:50;18.40;99.90
39925;DHT22;25592;49.986;11.618;2023-08-06T14:54:35;18.40;99.90
39925;DHT22;25592;49.986;11.618;2023-08-06T14:57:21;18.40;99.90
39925;DHT22;25592;49.986;11.618;2023-08-06T15:00:12;18.30;99.90
39925;DHT22;25592;49.986;11.618;2023-08-06T15:02:58;18.20;99.90
39925;DHT22;25592;49.986;11.618;2023-08-06T15:05:46;18.20;99.90
39925;DHT22;25592;49.986;11.618;2023-08-06T15:08:31;18.30;99.90
39925;DHT22;25592;49.986;11.618;2023-08-06T15:11:17;18.40;99.90
39925;DHT22;25592;49.986;11.618;2023-08-06T15:14:02;18.40;99.90
39925;DHT22;25592;49.986;11.618;2023-08-06T15:16:50;18.40;99.90
39925;DHT22;25592;49.986;11.618;2023-08-06T15:19:37;18.60;99.90
39925;DHT22;25592;49.986;11.618;2023-08-06T15:22:23;18.70;99.90
39925;DHT22;25592;49.986;11.618;2023-08-06T15:25:09;18.70;99.90
39925;DHT22;25592;49.986;11.618;2023-08-06T15:27:55;18.80;99.90
39925;DHT22;25592;49.986;11.618;2023-08-06T15:30:40;19.00;99.90
39925;DHT22;25592;49.986;11.618;2023-08-06T15:33:30;18.80;99.90
39925;DHT22;25592;49.986;11.618;2023-08-06T15:36:15;18.90;99.90
39925;DHT22;25592;49.986;11.618;2023-08-06T15:39:04;18.90;99.90
39925;DHT22;25592;49.986;11.618;2023-08-06T15:41:49;18.90;99.90
39925;DHT22;25592;49.986;11.618;2023-08-06T15:44:35;18.90;99.90
39925;DHT22;25592;49.986;11.618;2023-08-06T15:47:21;19.00;99.90
39925;DHT22;25592;49.986;11.618;2023-08-06T15:50:07;19.10;99.90
39925;DHT22;25592;49.986;11.618;2023-08-06T15:52:53;19.10;99.90
39925;DHT22;25592;49.986;11.618;2023-08-06T15:55:39;18.80;99.90
39925;DHT22;25592;49.986;11.618;2023-08-06T15:58:24;18.70;99.90
39925;DHT22;25592;49.986;11.618;2023-08-06T16:01:10;18.30;99.90
39925;DHT22;25592;49.986;11.618;2023-08-06T16:03:55;18.00;99.90
39925;DHT22;25592;49.986;11.618;2023-08-06T16:06:41;17.90;99.90
39925;DHT22;25592;49.986;11.618;2023-08-06T16:09:26;17.90;99.90
39925;DHT22;25592;49.986;11.618;2023-08-06T16:12:12;17.80;99.90
39925;DHT22;25592;49.986;11.618;2023-08-06T16:14:57;17.70;99.90
39925;DHT22;25592;49.986;11.618;2023-08-06T16:17:43;17.70;99.90
39925;DHT22;25592;49.986;11.618;2023-08-06T16:20:29;17.60;99.90
39925;DHT22;25592;49.986;11.618;2023-08-06T16:23:15;17.50;99.90
39925;DHT22;25592;49.986;11.618;2023-08-06T16:26:00;17.40;99.90
39925;DHT22;25592;49.986;11.618;2023-08-06T16:28:46;17.30;99.90
39925;DHT22;25592;49.986;11.618;2023-08-06T16:31:31;17.20;99.90
39925;DHT22;25592;49.986;11.618;2023-08-06T16:34:17;17.00;99.90
39925;DHT22;25592;49.986;11.618;2023-08-06T16:37:03;16.90;99.90
39925;DHT22;25592;49.986;11.618;2023-08-06T16:39:49;16.80;99.90
39925;DHT22;25592;49.986;11.618;2023-08-06T16:42:34;16.80;99.90
39925;DHT22;25592;49.986;11.618;2023-08-06T16:45:20;17.00;99.90
39925;DHT22;25592;49.986;11.618;2023-08-06T16:48:05;17.00;99.90
39925;DHT22;25592;49.986;11.618;2023-08-06T16:50:51;17.00;99.90
39925;DHT22;25592;49.986;11.618;2023-08-06T16:53:37;16.80;99.90
39925;DHT22;25592;49.986;11.618;2023-08-06T16:56:22;16.50;99.90
39925;DHT22;25592;49.986;11.618;2023-08-06T16:59:08;16.30;99.90
39925;DHT22;25592;49.986;11.618;2023-08-06T17:01:53;16.20;99.90
39925;DHT22;25592;49.986;11.618;2023-08-06T17:04:39;16.10;99.90
39925;DHT22;25592;49.986;11.618;2023-08-06T17:07:24;16.10;99.90
39925;DHT22;25592;49.986;11.618;2023-08-06T17:10:10;16.10;99.90
39925;DHT22;25592;49.986;11.618;2023-08-06T17:12:55;16.10;99.90
39925;DHT22;25592;49.986;11.618;2023-08-06T17:16:01;16.20;99.90